sensor_id;sensor_type;location;lat;lon;timestamp;temperature;humidity
48043;DHT22;33988;47.992;8.820;2023-03-14T00:01:17;15.20;58.00
48043;DHT22;33988;47.992;8.820;2023-03-14T00:03:47;15.20;58.00
48043;DHT22;33988;47.992;8.820;2023-03-14T00:06:17;15.10;58.10
48043;DHT22;33988;47.992;8.820;2023-03-14T00:08:45;15.20;58.70
48043;DHT22;33988;47.992;8.820;2023-03-14T00:11:18;15.10;58.00
48043;DHT22;33988;47.992;8.820;2023-03-14T00:13:50;15.10;58.00
48043;DHT22;33988;47.992;8.820;2023-03-14T00:16:17;15.00;57.80
48043;DHT22;33988;47.992;8.820;2023-03-14T00:18:45;14.90;57.70
48043;DHT22;33988;47.992;8.820;2023-03-14T00:21:12;14.90;57.90
48043;DHT22;33988;47.992;8.820;2023-03-14T00:23:40;14.80;58.00
48043;DHT22;33988;47.992;8.820;2023-03-14T00:26:10;14.70;58.10
48043;DHT22;33988;47.992;8.820;2023-03-14T00:28:39;14.70;58.20
48043;DHT22;33988;47.992;8.820;2023-03-14T00:31:08;14.70;58.30
48043;DHT22;33988;47.992;8.820;2023-03-14T00:33:39;14.60;58.20
48043;DHT22;33988;47.992;8.820;2023-03-14T00:36:08;14.60;58.40
48043;DHT22;33988;47.992;8.820;2023-03-14T00:38:41;14.60;58.40
48043;DHT22;33988;47.992;8.820;2023-03-14T00:41:14;14.50;58.40
48043;DHT22;33988;47.992;8.820;2023-03-14T00:43:43;14.50;58.60
48043;DHT22;33988;47.992;8.820;2023-03-14T00:46:11;14.50;58.60
48043;DHT22;33988;47.992;8.820;2023-03-14T00:48:38;14.50;58.60
48043;DHT22;33988;47.992;8.820;2023-03-14T00:51:08;14.60;58.70
48043;DHT22;33988;47.992;8.820;2023-03-14T00:53:36;14.60;58.70
48043;DHT22;33988;47.992;8.820;2023-03-14T00:56:07;14.60;58.70
48043;DHT22;33988;47.992;8.820;2023-03-14T00:58:35;14.60;58.60
48043;DHT22;33988;47.992;8.820;2023-03-14T01:01:14;14.60;58.60
48043;DHT22;33988;47.992;8.820;2023-03-14T01:03:50;14.60;58.90
48043;DHT22;33988;47.992;8.820;2023-03-14T01:06:26;14.60;58.70
48043;DHT22;33988;47.992;8.820;2023-03-14T01:08:58;14.60;58.70
48043;DHT22;33988;47.992;8.820;2023-03-14T01:11:30;14.70;58.60
48043;DHT22;33988;47.992;8.820;2023-03-14T01:13:59;14.60;58.60
48043;DHT22;33988;47.992;8.820;2023-03-14T01:16:31;14.60;58.60
48043;DHT22;33988;47.992;8.820;2023-03-14T01:19:02;14.70;58.70
48043;DHT22;33988;47.992;8.820;2023-03-14T01:21:32;14.60;58.70
48043;DHT22;33988;47.992;8.820;2023-03-14T01:24:01;14.60;58.70
48043;DHT22;33988;47.992;8.820;2023-03-14T01:26:31;14.70;58.90
48043;DHT22;33988;47.992;8.820;2023-03-14T01:28:59;14.70;58.90
48043;DHT22;33988;47.992;8.820;2023-03-14T01:31:27;14.70;58.90
48043;DHT22;33988;47.992;8.820;2023-03-14T01:33:54;14.70;58.80
48043;DHT22;33988;47.992;8.820;2023-03-14T01:36:21;14.70;58.80
48043;DHT22;33988;47.992;8.820;2023-03-14T01:38:52;14.70;58.70
48043;DHT22;33988;47.992;8.820;2023-03-14T01:41:23;14.70;58.70
48043;DHT22;33988;47.992;8.820;2023-03-14T01:43:51;14.70;58.80
48043;DHT22;33988;47.992;8.820;2023-03-14T01:46:51;14.60;58.60
48043;DHT22;33988;47.992;8.820;2023-03-14T01:51:59;14.50;58.80
48043;DHT22;33988;47.992;8.820;2023-03-14T01:54:43;14.60;58.60
48043;DHT22;33988;47.992;8.820;2023-03-14T01:57:19;14.50;59.00
48043;DHT22;33988;47.992;8.820;2023-03-14T01:59:54;14.50;58.90
48043;DHT22;33988;47.992;8.820;2023-03-14T02:02:26;14.50;58.80
48043;DHT22;33988;47.992;8.820;2023-03-14T02:04:57;14.50;58.80
48043;DHT22;33988;47.992;8.820;2023-03-14T02:10:08;14.40;59.00
48043;DHT22;33988;47.992;8.820;2023-03-14T02:12:36;14.40;58.80
48043;DHT22;33988;47.992;8.820;2023-03-14T02:15:04;14.40;58.80
48043;DHT22;33988;47.992;8.820;2023-03-14T02:17:35;14.40;58.90
48043;DHT22;33988;47.992;8.820;2023-03-14T02:20:10;14.40;58.80
48043;DHT22;33988;47.992;8.820;2023-03-14T02:22:52;14.40;59.00
48043;DHT22;33988;47.992;8.820;2023-03-14T02:25:26;14.40;58.90
48043;DHT22;33988;47.992;8.820;2023-03-14T02:28:18;14.40;58.80
48043;DHT22;33988;47.992;8.820;2023-03-14T02:30:48;14.30;58.70
48043;DHT22;33988;47.992;8.820;2023-03-14T02:33:20;14.40;58.70
48043;DHT22;33988;47.992;8.820;2023-03-14T02:35:55;14.30;58.60
48043;DHT22;33988;47.992;8.820;2023-03-14T02:41:35;14.20;58.70
48043;DHT22;33988;47.992;8.820;2023-03-14T02:44:02;14.20;58.50
48043;DHT22;33988;47.992;8.820;2023-03-14T02:46:28;14.20;58.50
48043;DHT22;33988;47.992;8.820;2023-03-14T02:49:04;14.10;58.50
48043;DHT22;33988;47.992;8.820;2023-03-14T02:51:37;14.10;58.60
48043;DHT22;33988;47.992;8.820;2023-03-14T02:54:08;14.10;59.20
48043;DHT22;33988;47.992;8.820;2023-03-14T02:56:37;14.10;58.60
48043;DHT22;33988;47.992;8.820;2023-03-14T02:59:05;14.10;58.70
48043;DHT22;33988;47.992;8.820;2023-03-14T03:01:34;14.10;58.70
48043;DHT22;33988;47.992;8.820;2023-03-14T03:04:04;14.10;58.70
48043;DHT22;33988;47.992;8.820;2023-03-14T03:06:31;14.10;58.70
48043;DHT22;33988;47.992;8.820;2023-03-14T03:08:58;14.10;58.60
48043;DHT22;33988;47.992;8.820;2023-03-14T03:11:25;14.00;58.60
48043;DHT22;33988;47.992;8.820;2023-03-14T03:13:52;14.10;58.70
48043;DHT22;33988;47.992;8.820;2023-03-14T03:16:21;14.00;58.70
48043;DHT22;33988;47.992;8.820;2023-03-14T03:18:50;14.10;58.80
48043;DHT22;33988;47.992;8.820;2023-03-14T03:21:16;14.00;58.70
48043;DHT22;33988;47.992;8.820;2023-03-14T03:23:44;14.00;58.60
48043;DHT22;33988;47.992;8.820;2023-03-14T03:26:11;14.00;58.50
48043;DHT22;33988;47.992;8.820;2023-03-14T03:28:38;14.00;58.50
48043;DHT22;33988;47.992;8.820;2023-03-14T03:31:10;14.00;58.40
48043;DHT22;33988;47.992;8.820;2023-03-14T03:33:40;14.00;58.50
48043;DHT22;33988;47.992;8.820;2023-03-14T03:36:08;14.00;58.40
48043;DHT22;33988;47.992;8.820;2023-03-14T03:38:35;14.00;58.30
48043;DHT22;33988;47.992;8.820;2023-03-14T03:41:06;13.90;58.20
48043;DHT22;33988;47.992;8.820;2023-03-14T03:43:33;13.90;58.20
48043;DHT22;33988;47.992;8.820;2023-03-14T03:46:05;13.80;58.20
48043;DHT22;33988;47.992;8.820;2023-03-14T03:48:33;13.80;58.20
48043;DHT22;33988;47.992;8.820;2023-03-14T03:51:00;13.80;58.20
48043;DHT22;33988;47.992;8.820;2023-03-14T03:53:27;13.80;58.30
48043;DHT22;33988;47.992;8.820;2023-03-14T03:55:59;13.80;58.40
48043;DHT22;33988;47.992;8.820;2023-03-14T03:58:33;13.70;58.30
48043;DHT22;33988;47.992;8.820;2023-03-14T04:01:06;13.80;58.40
48043;DHT22;33988;47.992;8.820;2023-03-14T04:03:34;13.70;58.30
48043;DHT22;33988;47.992;8.820;2023-03-14T04:06:04;13.70;58.30
48043;DHT22;33988;47.992;8.820;2023-03-14T04:08:33;13.70;58.40
48043;DHT22;33988;47.992;8.820;2023-03-14T04:11:01;13.60;58.30
48043;DHT22;33988;47.992;8.820;2023-03-14T04:13:28;13.60;58.30
48043;DHT22;33988;47.992;8.820;2023-03-14T04:15:56;13.60;58.30
48043;DHT22;33988;47.992;8.820;2023-03-14T04:18:27;13.60;58.40
48043;DHT22;33988;47.992;8.820;2023-03-14T04:20:57;13.60;58.40
48043;DHT22;33988;47.992;8.820;2023-03-14T04:23:25;13.60;58.30
48043;DHT22;33988;47.992;8.820;2023-03-14T04:25:53;13.70;58.40
48043;DHT22;33988;47.992;8.820;2023-03-14T04:28:20;13.70;58.40
48043;DHT22;33988;47.992;8.820;2023-03-14T04:30:47;13.70;58.30
48043;DHT22;33988;47.992;8.820;2023-03-14T04:33:18;13.70;58.20
48043;DHT22;33988;47.992;8.820;2023-03-14T04:35:46;13.70;58.30
48043;DHT22;33988;47.992;8.820;2023-03-14T04:38:13;13.70;58.20
48043;DHT22;33988;47.992;8.820;2023-03-14T04:40:41;13.70;58.10
48043;DHT22;33988;47.992;8.820;2023-03-14T04:43:13;13.70;58.00
48043;DHT22;33988;47.992;8.820;2023-03-14T04:45:43;13.70;57.90
48043;DHT22;33988;47.992;8.820;2023-03-14T04:48:10;13.60;57.90
48043;DHT22;33988;47.992;8.820;2023-03-14T04:50:37;13.60;57.90
48043;DHT22;33988;47.992;8.820;2023-03-14T04:53:04;13.60;58.00
48043;DHT22;33988;47.992;8.820;2023-03-14T04:55:38;13.50;58.00
48043;DHT22;33988;47.992;8.820;2023-03-14T04:58:07;13.50;58.00
48043;DHT22;33988;47.992;8.820;2023-03-14T05:00:37;13.50;58.10
48043;DHT22;33988;47.992;8.820;2023-03-14T05:03:05;13.50;58.00
48043;DHT22;33988;47.992;8.820;2023-03-14T05:05:34;13.50;58.00
48043;DHT22;33988;47.992;8.820;2023-03-14T05:08:04;13.50;57.90
48043;DHT22;33988;47.992;8.820;2023-03-14T05:10:31;13.50;57.90
48043;DHT22;33988;47.992;8.820;2023-03-14T05:13:00;13.50;58.00
48043;DHT22;33988;47.992;8.820;2023-03-14T05:15:30;13.50;57.90
48043;DHT22;33988;47.992;8.820;2023-03-14T05:17:59;13.50;58.00
48043;DHT22;33988;47.992;8.820;2023-03-14T05:20:28;13.30;58.10
48043;DHT22;33988;47.992;8.820;2023-03-14T05:22:57;13.40;57.90
48043;DHT22;33988;47.992;8.820;2023-03-14T05:25:24;13.30;58.00
48043;DHT22;33988;47.992;8.820;2023-03-14T05:27:55;13.50;57.90
48043;DHT22;33988;47.992;8.820;2023-03-14T05:30:22;13.50;57.80
48043;DHT22;33988;47.992;8.820;2023-03-14T05:32:52;13.40;57.70
48043;DHT22;33988;47.992;8.820;2023-03-14T05:35:21;13.50;57.80
48043;DHT22;33988;47.992;8.820;2023-03-14T05:37:48;13.40;57.60
48043;DHT22;33988;47.992;8.820;2023-03-14T05:40:15;13.40;57.70
48043;DHT22;33988;47.992;8.820;2023-03-14T05:42:42;13.40;57.60
48043;DHT22;33988;47.992;8.820;2023-03-14T05:45:09;13.40;57.60
48043;DHT22;33988;47.992;8.820;2023-03-14T05:47:37;13.40;57.80
48043;DHT22;33988;47.992;8.820;2023-03-14T05:50:04;13.40;57.80
48043;DHT22;33988;47.992;8.820;2023-03-14T05:52:31;13.30;57.70
48043;DHT22;33988;47.992;8.820;2023-03-14T05:54:58;13.30;57.70
48043;DHT22;33988;47.992;8.820;2023-03-14T05:57:25;13.30;57.80
48043;DHT22;33988;47.992;8.820;2023-03-14T05:59:55;13.30;57.80
48043;DHT22;33988;47.992;8.820;2023-03-14T06:02:21;13.30;57.70
48043;DHT22;33988;47.992;8.820;2023-03-14T06:04:48;13.20;57.70
48043;DHT22;33988;47.992;8.820;2023-03-14T06:07:15;13.20;57.70
48043;DHT22;33988;47.992;8.820;2023-03-14T06:09:44;13.20;57.80
48043;DHT22;33988;47.992;8.820;2023-03-14T06:12:11;13.20;57.80
48043;DHT22;33988;47.992;8.820;2023-03-14T06:14:38;13.20;57.80
48043;DHT22;33988;47.992;8.820;2023-03-14T06:17:05;13.20;57.90
48043;DHT22;33988;47.992;8.820;2023-03-14T06:19:32;13.20;57.90
48043;DHT22;33988;47.992;8.820;2023-03-14T06:22:01;13.20;57.90
48043;DHT22;33988;47.992;8.820;2023-03-14T06:24:28;13.20;58.00
48043;DHT22;33988;47.992;8.820;2023-03-14T06:26:58;13.20;58.00
48043;DHT22;33988;47.992;8.820;2023-03-14T06:29:27;13.20;57.90
48043;DHT22;33988;47.992;8.820;2023-03-14T06:31:54;13.20;57.90
48043;DHT22;33988;47.992;8.820;2023-03-14T06:34:26;13.20;57.90
48043;DHT22;33988;47.992;8.820;2023-03-14T06:36:53;13.20;57.90
48043;DHT22;33988;47.992;8.820;2023-03-14T06:39:20;13.20;57.90
48043;DHT22;33988;47.992;8.820;2023-03-14T06:41:49;13.10;57.80
48043;DHT22;33988;47.992;8.820;2023-03-14T06:44:16;13.10;58.40
48043;DHT22;33988;47.992;8.820;2023-03-14T06:46:46;13.00;57.80
48043;DHT22;33988;47.992;8.820;2023-03-14T06:49:13;13.00;57.80
48043;DHT22;33988;47.992;8.820;2023-03-14T06:51:40;12.90;57.90
48043;DHT22;33988;47.992;8.820;2023-03-14T06:54:07;12.80;57.90
48043;DHT22;33988;47.992;8.820;2023-03-14T06:56:34;12.90;58.10
48043;DHT22;33988;47.992;8.820;2023-03-14T06:59:01;12.90;58.20
48043;DHT22;33988;47.992;8.820;2023-03-14T07:01:32;12.90;58.20
48043;DHT22;33988;47.992;8.820;2023-03-14T07:04:02;12.90;58.20
48043;DHT22;33988;47.992;8.820;2023-03-14T07:06:34;12.90;58.10
48043;DHT22;33988;47.992;8.820;2023-03-14T07:09:06;12.90;58.20
48043;DHT22;33988;47.992;8.820;2023-03-14T07:11:36;13.00;58.20
48043;DHT22;33988;47.992;8.820;2023-03-14T07:14:03;13.00;58.20
48043;DHT22;33988;47.992;8.820;2023-03-14T07:16:32;13.00;58.30
48043;DHT22;33988;47.992;8.820;2023-03-14T07:19:00;13.10;58.40
48043;DHT22;33988;47.992;8.820;2023-03-14T07:21:27;13.10;58.30
48043;DHT22;33988;47.992;8.820;2023-03-14T07:23:58;13.20;58.40
48043;DHT22;33988;47.992;8.820;2023-03-14T07:26:25;13.20;58.20
48043;DHT22;33988;47.992;8.820;2023-03-14T07:28:52;13.30;58.30
48043;DHT22;33988;47.992;8.820;2023-03-14T07:31:19;13.40;58.40
48043;DHT22;33988;47.992;8.820;2023-03-14T07:33:48;13.40;58.40
48043;DHT22;33988;47.992;8.820;2023-03-14T07:36:15;13.50;58.50
48043;DHT22;33988;47.992;8.820;2023-03-14T07:38:45;13.60;58.50
48043;DHT22;33988;47.992;8.820;2023-03-14T07:41:14;13.70;58.70
48043;DHT22;33988;47.992;8.820;2023-03-14T07:43:41;13.90;58.60
48043;DHT22;33988;47.992;8.820;2023-03-14T07:46:08;14.10;58.70
48043;DHT22;33988;47.992;8.820;2023-03-14T07:48:35;14.20;58.50
48043;DHT22;33988;47.992;8.820;2023-03-14T07:51:05;14.40;58.40
48043;DHT22;33988;47.992;8.820;2023-03-14T07:53:34;14.70;58.30
48043;DHT22;33988;47.992;8.820;2023-03-14T07:56:07;14.90;58.20
48043;DHT22;33988;47.992;8.820;2023-03-14T07:58:37;15.20;58.10
48043;DHT22;33988;47.992;8.820;2023-03-14T08:01:07;15.40;57.50
48043;DHT22;33988;47.992;8.820;2023-03-14T08:03:36;15.70;56.80
48043;DHT22;33988;47.992;8.820;2023-03-14T08:06:08;15.90;56.20
48043;DHT22;33988;47.992;8.820;2023-03-14T08:08:35;16.00;55.60
48043;DHT22;33988;47.992;8.820;2023-03-14T08:11:06;16.10;55.20
48043;DHT22;33988;47.992;8.820;2023-03-14T08:13:37;16.20;54.70
48043;DHT22;33988;47.992;8.820;2023-03-14T08:16:04;16.20;54.30
48043;DHT22;33988;47.992;8.820;2023-03-14T08:18:32;16.20;54.40
48043;DHT22;33988;47.992;8.820;2023-03-14T08:20:59;16.30;54.50
48043;DHT22;33988;47.992;8.820;2023-03-14T08:23:26;16.30;54.10
48043;DHT22;33988;47.992;8.820;2023-03-14T08:25:57;16.30;54.20
48043;DHT22;33988;47.992;8.820;2023-03-14T08:28:29;16.40;54.60
48043;DHT22;33988;47.992;8.820;2023-03-14T08:31:02;16.60;54.80
48043;DHT22;33988;47.992;8.820;2023-03-14T08:33:29;16.80;54.60
48043;DHT22;33988;47.992;8.820;2023-03-14T08:35:58;17.00;53.90
48043;DHT22;33988;47.992;8.820;2023-03-14T08:38:28;17.10;53.20
48043;DHT22;33988;47.992;8.820;2023-03-14T08:41:00;17.20;52.80
48043;DHT22;33988;47.992;8.820;2023-03-14T08:43:30;17.20;52.40
48043;DHT22;33988;47.992;8.820;2023-03-14T08:46:00;17.20;51.90
48043;DHT22;33988;47.992;8.820;2023-03-14T08:48:28;17.10;51.60
48043;DHT22;33988;47.992;8.820;2023-03-14T08:51:11;17.00;51.60
48043;DHT22;33988;47.992;8.820;2023-03-14T08:53:41;16.90;51.30
48043;DHT22;33988;47.992;8.820;2023-03-14T08:56:08;16.80;51.40
48043;DHT22;33988;47.992;8.820;2023-03-14T08:58:37;16.70;51.40
48043;DHT22;33988;47.992;8.820;2023-03-14T09:01:09;16.60;51.40
48043;DHT22;33988;47.992;8.820;2023-03-14T09:03:37;16.50;51.40
48043;DHT22;33988;47.992;8.820;2023-03-14T09:06:09;16.40;51.50
48043;DHT22;33988;47.992;8.820;2023-03-14T09:08:36;16.30;51.40
48043;DHT22;33988;47.992;8.820;2023-03-14T09:11:11;16.20;51.50
48043;DHT22;33988;47.992;8.820;2023-03-14T09:13:38;16.10;51.40
48043;DHT22;33988;47.992;8.820;2023-03-14T09:16:06;16.00;51.50
48043;DHT22;33988;47.992;8.820;2023-03-14T09:18:33;15.80;51.60
48043;DHT22;33988;47.992;8.820;2023-03-14T09:21:01;15.80;51.80
48043;DHT22;33988;47.992;8.820;2023-03-14T09:23:31;15.70;51.90
48043;DHT22;33988;47.992;8.820;2023-03-14T09:26:02;15.70;52.10
48043;DHT22;33988;47.992;8.820;2023-03-14T09:28:29;15.60;52.10
48043;DHT22;33988;47.992;8.820;2023-03-14T09:30:56;15.50;52.10
48043;DHT22;33988;47.992;8.820;2023-03-14T09:33:26;15.50;52.20
48043;DHT22;33988;47.992;8.820;2023-03-14T09:35:58;15.50;52.30
48043;DHT22;33988;47.992;8.820;2023-03-14T09:38:28;15.40;52.40
48043;DHT22;33988;47.992;8.820;2023-03-14T09:40:57;15.40;52.40
48043;DHT22;33988;47.992;8.820;2023-03-14T09:43:31;15.40;52.60
48043;DHT22;33988;47.992;8.820;2023-03-14T09:46:00;15.40;52.70
48043;DHT22;33988;47.992;8.820;2023-03-14T09:48:31;15.40;52.80
48043;DHT22;33988;47.992;8.820;2023-03-14T09:51:05;15.40;52.50
48043;DHT22;33988;47.992;8.820;2023-03-14T09:53:42;15.30;52.50
48043;DHT22;33988;47.992;8.820;2023-03-14T09:56:32;15.10;52.60
48043;DHT22;33988;47.992;8.820;2023-03-14T09:59:03;15.20;52.50
48043;DHT22;33988;47.992;8.820;2023-03-14T10:01:32;15.30;52.60
48043;DHT22;33988;47.992;8.820;2023-03-14T10:04:14;15.20;52.60
48043;DHT22;33988;47.992;8.820;2023-03-14T10:06:48;15.20;52.50
48043;DHT22;33988;47.992;8.820;2023-03-14T10:09:20;15.20;52.60
48043;DHT22;33988;47.992;8.820;2023-03-14T10:11:58;15.20;52.60
48043;DHT22;33988;47.992;8.820;2023-03-14T10:14:37;15.20;53.20
48043;DHT22;33988;47.992;8.820;2023-03-14T10:17:14;15.20;52.80
48043;DHT22;33988;47.992;8.820;2023-03-14T10:19:57;15.20;52.80
48043;DHT22;33988;47.992;8.820;2023-03-14T10:22:30;15.20;52.70
48043;DHT22;33988;47.992;8.820;2023-03-14T10:25:02;15.20;52.60
48043;DHT22;33988;47.992;8.820;2023-03-14T10:27:34;15.20;52.60
48043;DHT22;33988;47.992;8.820;2023-03-14T10:30:07;15.20;52.70
48043;DHT22;33988;47.992;8.820;2023-03-14T10:32:45;15.20;52.90
48043;DHT22;33988;47.992;8.820;2023-03-14T10:35:18;15.20;53.00
48043;DHT22;33988;47.992;8.820;2023-03-14T10:37:57;15.20;53.10
48043;DHT22;33988;47.992;8.820;2023-03-14T10:40:39;15.20;53.20
48043;DHT22;33988;47.992;8.820;2023-03-14T10:43:13;15.20;53.40
48043;DHT22;33988;47.992;8.820;2023-03-14T10:45:44;15.10;53.60
48043;DHT22;33988;47.992;8.820;2023-03-14T10:48:35;15.10;53.60
48043;DHT22;33988;47.992;8.820;2023-03-14T10:51:19;15.00;53.70
48043;DHT22;33988;47.992;8.820;2023-03-14T10:53:58;15.10;54.10
48043;DHT22;33988;47.992;8.820;2023-03-14T10:56:36;15.00;54.20
48043;DHT22;33988;47.992;8.820;2023-03-14T10:59:15;14.80;54.30
48043;DHT22;33988;47.992;8.820;2023-03-14T11:08:07;14.80;54.70
48043;DHT22;33988;47.992;8.820;2023-03-14T11:10:39;14.80;54.60
48043;DHT22;33988;47.992;8.820;2023-03-14T11:13:26;14.70;54.70
48043;DHT22;33988;47.992;8.820;2023-03-14T11:16:41;14.70;55.10
48043;DHT22;33988;47.992;8.820;2023-03-14T11:19:48;14.60;55.60
48043;DHT22;33988;47.992;8.820;2023-03-14T11:25:56;14.60;55.60
48043;DHT22;33988;47.992;8.820;2023-03-14T11:28:37;14.60;55.90
48043;DHT22;33988;47.992;8.820;2023-03-14T11:31:25;14.60;56.00
48043;DHT22;33988;47.992;8.820;2023-03-14T11:36:33;14.50;56.00
48043;DHT22;33988;47.992;8.820;2023-03-14T11:39:16;14.50;56.00
48043;DHT22;33988;47.992;8.820;2023-03-14T11:41:47;14.40;56.20
48043;DHT22;33988;47.992;8.820;2023-03-14T11:44:38;14.50;56.40
48043;DHT22;33988;47.992;8.820;2023-03-14T11:52:25;14.40;56.50
48043;DHT22;33988;47.992;8.820;2023-03-14T11:55:03;14.40;56.70
48043;DHT22;33988;47.992;8.820;2023-03-14T11:57:34;14.40;56.90
48043;DHT22;33988;47.992;8.820;2023-03-14T12:00:20;14.40;56.90
48043;DHT22;33988;47.992;8.820;2023-03-14T12:09:09;14.40;57.20
48043;DHT22;33988;47.992;8.820;2023-03-14T12:11:47;14.40;57.20
48043;DHT22;33988;47.992;8.820;2023-03-14T12:14:32;14.40;57.20
48043;DHT22;33988;47.992;8.820;2023-03-14T12:19:44;14.40;57.20
48043;DHT22;33988;47.992;8.820;2023-03-14T12:22:31;14.30;57.10
48043;DHT22;33988;47.992;8.820;2023-03-14T12:25:04;14.30;57.50
48043;DHT22;33988;47.992;8.820;2023-03-14T12:27:44;14.30;57.20
48043;DHT22;33988;47.992;8.820;2023-03-14T12:35:44;14.10;57.50
48043;DHT22;33988;47.992;8.820;2023-03-14T12:43:46;14.10;57.30
48043;DHT22;33988;47.992;8.820;2023-03-14T12:46:26;13.90;57.20
48043;DHT22;33988;47.992;8.820;2023-03-14T12:51:36;13.90;56.50
48043;DHT22;33988;47.992;8.820;2023-03-14T12:57:23;13.80;56.40
48043;DHT22;33988;47.992;8.820;2023-03-14T13:02:38;13.70;56.40
48043;DHT22;33988;47.992;8.820;2023-03-14T13:05:19;13.60;56.20
48043;DHT22;33988;47.992;8.820;2023-03-14T13:10:25;13.50;56.00
48043;DHT22;33988;47.992;8.820;2023-03-14T13:12:57;13.50;56.30
48043;DHT22;33988;47.992;8.820;2023-03-14T13:18:24;13.50;56.10
48043;DHT22;33988;47.992;8.820;2023-03-14T13:20:59;13.50;56.00
48043;DHT22;33988;47.992;8.820;2023-03-14T13:23:32;13.40;55.90
48043;DHT22;33988;47.992;8.820;2023-03-14T13:26:03;13.40;56.50
48043;DHT22;33988;47.992;8.820;2023-03-14T13:28:37;13.50;55.90
48043;DHT22;33988;47.992;8.820;2023-03-14T13:31:04;13.40;55.80
48043;DHT22;33988;47.992;8.820;2023-03-14T13:33:33;13.30;55.80
48043;DHT22;33988;47.992;8.820;2023-03-14T13:36:04;13.40;55.70
48043;DHT22;33988;47.992;8.820;2023-03-14T13:38:35;13.40;55.40
48043;DHT22;33988;47.992;8.820;2023-03-14T13:41:07;13.40;55.40
48043;DHT22;33988;47.992;8.820;2023-03-14T13:43:39;13.30;55.30
48043;DHT22;33988;47.992;8.820;2023-03-14T13:46:14;13.30;55.40
48043;DHT22;33988;47.992;8.820;2023-03-14T13:48:46;13.30;55.80
48043;DHT22;33988;47.992;8.820;2023-03-14T13:51:17;13.40;55.80
48043;DHT22;33988;47.992;8.820;2023-03-14T13:53:46;13.40;55.60
48043;DHT22;33988;47.992;8.820;2023-03-14T13:56:20;13.50;55.60
48043;DHT22;33988;47.992;8.820;2023-03-14T13:58:51;13.50;55.50
48043;DHT22;33988;47.992;8.820;2023-03-14T14:01:31;13.60;55.60
48043;DHT22;33988;47.992;8.820;2023-03-14T14:04:07;13.60;55.50
48043;DHT22;33988;47.992;8.820;2023-03-14T14:06:44;13.60;55.10
48043;DHT22;33988;47.992;8.820;2023-03-14T14:09:38;13.70;54.70
48043;DHT22;33988;47.992;8.820;2023-03-14T14:12:16;13.70;54.20
48043;DHT22;33988;47.992;8.820;2023-03-14T14:14:49;13.70;54.00
48043;DHT22;33988;47.992;8.820;2023-03-14T14:20:26;13.60;53.40
48043;DHT22;33988;47.992;8.820;2023-03-14T14:23:36;13.60;53.50
48043;DHT22;33988;47.992;8.820;2023-03-14T14:26:01;13.50;53.40
48043;DHT22;33988;47.992;8.820;2023-03-14T14:28:37;13.50;53.40
48043;DHT22;33988;47.992;8.820;2023-03-14T14:31:20;13.50;53.90
48043;DHT22;33988;47.992;8.820;2023-03-14T14:33:57;13.50;53.20
48043;DHT22;33988;47.992;8.820;2023-03-14T14:39:24;13.40;52.40
48043;DHT22;33988;47.992;8.820;2023-03-14T14:41:53;13.30;52.00
48043;DHT22;33988;47.992;8.820;2023-03-14T14:44:34;13.30;52.40
48043;DHT22;33988;47.992;8.820;2023-03-14T14:47:12;13.20;51.90
48043;DHT22;33988;47.992;8.820;2023-03-14T14:49:39;13.20;52.20
48043;DHT22;33988;47.992;8.820;2023-03-14T14:52:22;13.20;52.20
48043;DHT22;33988;47.992;8.820;2023-03-14T14:55:00;13.10;52.00
48043;DHT22;33988;47.992;8.820;2023-03-14T14:57:38;13.20;52.20
48043;DHT22;33988;47.992;8.820;2023-03-14T15:00:18;13.20;52.10
48043;DHT22;33988;47.992;8.820;2023-03-14T15:02:51;13.10;51.70
48043;DHT22;33988;47.992;8.820;2023-03-14T15:05:28;13.20;51.80
48043;DHT22;33988;47.992;8.820;2023-03-14T15:07:57;13.10;51.80
48043;DHT22;33988;47.992;8.820;2023-03-14T15:10:25;13.10;52.10
48043;DHT22;33988;47.992;8.820;2023-03-14T15:12:52;13.20;52.00
48043;DHT22;33988;47.992;8.820;2023-03-14T15:15:20;13.20;51.80
48043;DHT22;33988;47.992;8.820;2023-03-14T15:17:51;13.20;51.60
48043;DHT22;33988;47.992;8.820;2023-03-14T15:20:19;13.20;51.30
48043;DHT22;33988;47.992;8.820;2023-03-14T15:22:47;13.20;51.60
48043;DHT22;33988;47.992;8.820;2023-03-14T15:25:14;13.10;51.30
48043;DHT22;33988;47.992;8.820;2023-03-14T15:28:05;13.10;51.30
48043;DHT22;33988;47.992;8.820;2023-03-14T15:30:39;13.10;51.30
48043;DHT22;33988;47.992;8.820;2023-03-14T15:33:08;13.10;51.30
48043;DHT22;33988;47.992;8.820;2023-03-14T15:35:37;13.10;51.20
48043;DHT22;33988;47.992;8.820;2023-03-14T15:38:04;13.10;51.00
48043;DHT22;33988;47.992;8.820;2023-03-14T15:40:31;13.10;51.00
48043;DHT22;33988;47.992;8.820;2023-03-14T15:42:58;13.10;51.00
48043;DHT22;33988;47.992;8.820;2023-03-14T15:45:27;13.10;51.00
48043;DHT22;33988;47.992;8.820;2023-03-14T15:47:54;13.10;51.10
48043;DHT22;33988;47.992;8.820;2023-03-14T15:50:21;13.20;51.20
48043;DHT22;33988;47.992;8.820;2023-03-14T15:52:48;13.20;51.10
48043;DHT22;33988;47.992;8.820;2023-03-14T15:55:15;13.20;51.00
48043;DHT22;33988;47.992;8.820;2023-03-14T15:57:45;13.10;50.80
48043;DHT22;33988;47.992;8.820;2023-03-14T16:00:15;13.20;50.90
48043;DHT22;33988;47.992;8.820;2023-03-14T16:02:48;13.20;50.90
48043;DHT22;33988;47.992;8.820;2023-03-14T16:05:16;13.20;50.70
48043;DHT22;33988;47.992;8.820;2023-03-14T16:07:45;13.20;50.60
48043;DHT22;33988;47.992;8.820;2023-03-14T16:10:14;13.20;50.50
48043;DHT22;33988;47.992;8.820;2023-03-14T16:12:46;13.10;50.40
48043;DHT22;33988;47.992;8.820;2023-03-14T16:15:16;13.10;50.60
48043;DHT22;33988;47.992;8.820;2023-03-14T16:17:45;13.10;50.60
48043;DHT22;33988;47.992;8.820;2023-03-14T16:20:15;13.00;50.60
48043;DHT22;33988;47.992;8.820;2023-03-14T16:22:46;13.10;50.80
48043;DHT22;33988;47.992;8.820;2023-03-14T16:25:14;13.10;50.70
48043;DHT22;33988;47.992;8.820;2023-03-14T16:27:41;13.10;50.70
48043;DHT22;33988;47.992;8.820;2023-03-14T16:30:11;13.10;50.90
48043;DHT22;33988;47.992;8.820;2023-03-14T16:32:39;13.10;50.80
48043;DHT22;33988;47.992;8.820;2023-03-14T16:35:07;13.10;50.70
48043;DHT22;33988;47.992;8.820;2023-03-14T16:37:34;13.10;50.70
48043;DHT22;33988;47.992;8.820;2023-03-14T16:40:01;13.10;51.50
48043;DHT22;33988;47.992;8.820;2023-03-14T16:42:43;13.10;50.80
48043;DHT22;33988;47.992;8.820;2023-03-14T16:45:29;13.10;50.90
48043;DHT22;33988;47.992;8.820;2023-03-14T16:47:56;13.10;50.80
48043;DHT22;33988;47.992;8.820;2023-03-14T16:50:23;13.10;50.70
48043;DHT22;33988;47.992;8.820;2023-03-14T16:52:50;13.10;50.80
48043;DHT22;33988;47.992;8.820;2023-03-14T16:55:17;13.10;50.70
48043;DHT22;33988;47.992;8.820;2023-03-14T16:57:47;13.10;50.60
48043;DHT22;33988;47.992;8.820;2023-03-14T17:00:14;13.10;50.50
48043;DHT22;33988;47.992;8.820;2023-03-14T17:02:41;13.00;50.60